CSL weather

Cabo San Lucas International Airport
Cabo San Lucas, Baja California Sur, Mexico

Public forecast

Using degrees Celsius for public forecast. Weather courtesy of forecast.io.

Current aviation weather report (METAR) for Cabo San Lucas International Airport

Report is more than 2 hours old.

Retrieved 2019/12/12 02:40 UTC (3 hours ago):

MMSL 120240Z 30006KT 7SM FEW260 18/14 A3006 RMK 8/008 ISOL AC

Aviation forecast (TAF) for Cabo San Lucas International Airport

Forecast is more than 6 hours old.

Retrieved 2019/12/11 18:33 UTC (11 hours ago):

TAF MMSL 111633Z 1118/1218 03010KT P6SM SCT030 FM120000 25010KT P6SM BKN025 FM120900 00000KT P6SM SCT010 FM121600 03010KT P6SM SKC